createdAt,value
2019-03-13T00:00:32.882Z,13.4
2019-03-13T00:01:26.506Z,13.4
2019-03-13T00:02:12.428Z,13.4
2019-03-13T00:03:03.040Z,13.4
2019-03-13T00:03:52.835Z,13.4
2019-03-13T00:04:42.320Z,13.4
2019-03-13T00:05:32.944Z,13.3
2019-03-13T00:06:23.018Z,13.3
2019-03-13T00:07:13.060Z,13.3
2019-03-13T00:08:03.392Z,13.3
2019-03-13T00:08:53.462Z,13.3
2019-03-13T00:09:43.517Z,13.3
2019-03-13T00:10:35.806Z,13.3
2019-03-13T00:11:23.689Z,13.3
2019-03-13T00:12:13.129Z,13.3
2019-03-13T00:13:03.759Z,13.3
2019-03-13T00:13:53.535Z,13.3
2019-03-13T00:14:42.825Z,13.3
2019-03-13T00:15:34.072Z,13.3
2019-03-13T00:16:23.714Z,13.3
2019-03-13T00:17:13.799Z,13.3
2019-03-13T00:18:03.859Z,13.3
2019-03-13T00:18:53.897Z,13.3
2019-03-13T00:19:44.241Z,13.3
2019-03-13T00:20:33.738Z,13.3
2019-03-13T00:21:23.794Z,13.3
2019-03-13T00:22:13.861Z,13.3
2019-03-13T00:23:04.201Z,13.3
2019-03-13T00:23:54.525Z,13.2
2019-03-13T00:24:44.669Z,13.3
2019-03-13T00:25:34.383Z,13.2
2019-03-13T00:26:24.169Z,13.2
2019-03-13T00:27:14.564Z,13.2
2019-03-13T00:28:04.912Z,13.2
2019-03-13T00:28:54.627Z,13.2
2019-03-13T00:29:44.399Z,13.2
2019-03-13T00:30:34.461Z,13.2
2019-03-13T00:31:24.523Z,13.2
2019-03-13T00:32:14.866Z,13.2
2019-03-13T00:33:04.649Z,13.2
2019-03-13T00:33:55.251Z,13.2
2019-03-13T00:34:44.756Z,13.2
2019-03-13T00:35:34.819Z,13.2
2019-03-13T00:36:24.876Z,13.2
2019-03-13T00:37:15.478Z,13.2
2019-03-13T00:38:05.083Z,13.1
2019-03-13T00:38:55.322Z,13.1
2019-03-13T00:39:44.853Z,13.1
2019-03-13T00:40:35.447Z,13.1
2019-03-13T00:41:25.508Z,13.2
2019-03-13T00:42:15.278Z,13.1
2019-03-13T00:43:05.758Z,13.1
2019-03-13T00:43:55.438Z,13.1
2019-03-13T00:44:45.741Z,13.1
2019-03-13T00:45:35.290Z,13.1
2019-03-13T00:46:25.585Z,13.1
2019-03-13T00:47:15.646Z,13.1
2019-03-13T00:48:05.535Z,13.1
2019-03-13T00:48:56.350Z,13.1
2019-03-13T00:49:46.372Z,13.1
2019-03-13T00:50:36.443Z,13.1
2019-03-13T00:51:25.780Z,13.1
2019-03-13T00:52:16.102Z,13.1
2019-03-13T00:53:06.627Z,13.1
2019-03-13T00:53:56.122Z,13.1
2019-03-13T00:54:45.907Z,13.1
2019-03-13T00:55:36.535Z,13.1
2019-03-13T00:56:26.852Z,13.1
2019-03-13T00:57:16.924Z,13.1
2019-03-13T00:58:06.162Z,13.1
2019-03-13T00:58:56.747Z,13.1
2019-03-13T00:59:46.817Z,13.1
2019-03-13T01:00:37.168Z,13.1
2019-03-13T01:01:26.940Z,13.1
2019-03-13T01:02:17.269Z,13.1
2019-03-13T01:03:06.524Z,13
2019-03-13T01:03:56.847Z,13
2019-03-13T01:04:47.462Z,13.1
2019-03-13T01:05:37.530Z,13
2019-03-13T01:06:27.029Z,13
2019-03-13T01:07:17.361Z,13
2019-03-13T01:08:07.422Z,13
2019-03-13T01:08:57.276Z,13
2019-03-13T01:09:46.777Z,13
2019-03-13T01:10:37.444Z,13
2019-03-13T01:11:29.859Z,13
2019-03-13T01:12:17.171Z,13
2019-03-13T01:13:07.500Z,13
2019-03-13T01:13:58.140Z,13
2019-03-13T01:14:47.324Z,13
2019-03-13T01:15:37.746Z,13
2019-03-13T01:16:27.279Z,12.9
2019-03-13T01:17:17.592Z,13
2019-03-13T01:18:07.781Z,12.9
2019-03-13T01:18:57.716Z,12.9
2019-03-13T01:19:48.049Z,12.9
2019-03-13T01:20:37.549Z,12.9
2019-03-13T01:21:28.150Z,12.9
2019-03-13T01:22:18.231Z,12.9
2019-03-13T01:23:08.025Z,12.9
2019-03-13T01:23:58.538Z,12.9
2019-03-13T01:24:48.907Z,12.9
2019-03-13T01:25:38.428Z,12.9
2019-03-13T01:26:29.071Z,12.9
2019-03-13T01:27:18.515Z,12.9
2019-03-13T01:28:09.126Z,12.9
2019-03-13T01:28:59.183Z,12.9
2019-03-13T01:29:48.958Z,12.9
2019-03-13T01:30:39.089Z,12.9
2019-03-13T01:31:29.076Z,12.9
2019-03-13T01:32:18.860Z,12.9
2019-03-13T01:33:08.912Z,12.9
2019-03-13T01:33:59.261Z,12.9
2019-03-13T01:34:48.765Z,12.9
2019-03-13T01:35:38.933Z,12.8
2019-03-13T01:36:29.435Z,12.8
2019-03-13T01:37:19.578Z,12.8
2019-03-13T01:38:09.552Z,12.8
2019-03-13T01:38:59.915Z,12.8
2019-03-13T01:39:49.677Z,12.9
2019-03-13T01:40:39.464Z,12.8
2019-03-13T01:41:30.102Z,12.9
2019-03-13T01:42:20.144Z,12.8
2019-03-13T01:43:10.188Z,12.8
2019-03-13T01:44:00.607Z,12.8
2019-03-13T01:44:50.025Z,12.8
2019-03-13T01:45:40.107Z,12.8
2019-03-13T01:46:29.873Z,12.8
2019-03-13T01:47:20.211Z,12.8
2019-03-13T01:48:10.552Z,12.8
2019-03-13T01:49:00.614Z,12.8
2019-03-13T01:49:50.148Z,12.8
2019-03-13T01:50:39.909Z,12.8
2019-03-13T01:51:30.801Z,12.8
2019-03-13T01:52:20.294Z,12.8
2019-03-13T01:53:10.376Z,12.8
2019-03-13T01:54:00.989Z,12.8
2019-03-13T01:54:50.745Z,12.8
2019-03-13T01:55:40.838Z,12.8
2019-03-13T01:56:30.937Z,12.8
2019-03-13T01:57:20.939Z,12.7
2019-03-13T01:58:11.304Z,12.8
2019-03-13T01:59:01.327Z,12.7
2019-03-13T01:59:50.852Z,12.8
2019-03-13T02:00:41.169Z,12.7
2019-03-13T02:01:30.973Z,12.7
2019-03-13T02:02:21.662Z,12.7
2019-03-13T02:03:11.356Z,12.7
2019-03-13T02:04:01.436Z,12.7
2019-03-13T02:04:51.179Z,12.7
2019-03-13T02:05:40.971Z,12.7
2019-03-13T02:06:31.646Z,12.7
2019-03-13T02:07:21.454Z,12.7
2019-03-13T02:08:11.448Z,12.7
2019-03-13T02:09:01.749Z,12.7
2019-03-13T02:09:51.896Z,12.6
2019-03-13T02:10:41.893Z,12.7
2019-03-13T02:11:31.936Z,12.7
2019-03-13T02:12:21.489Z,12.6
2019-03-13T02:13:12.337Z,12.6
2019-03-13T02:14:02.114Z,12.7
2019-03-13T02:14:52.298Z,12.6
2019-03-13T02:15:41.125Z,12.6
2019-03-13T02:16:32.018Z,12.6
2019-03-13T02:17:22.638Z,12.6
2019-03-13T02:18:12.225Z,12.6
2019-03-13T02:19:01.646Z,12.6
2019-03-13T02:19:52.843Z,12.6
2019-03-13T02:20:42.883Z,12.6
2019-03-13T02:21:32.935Z,12.6
2019-03-13T02:22:22.727Z,12.6
2019-03-13T02:23:12.785Z,12.6
2019-03-13T02:24:02.642Z,12.6
2019-03-13T02:24:56.653Z,12.6
2019-03-13T02:25:42.765Z,12.6
2019-03-13T02:26:32.752Z,12.6
2019-03-13T02:27:22.798Z,12.6
2019-03-13T02:28:13.435Z,12.6
2019-03-13T02:29:03.194Z,12.6
2019-03-13T02:29:53.258Z,12.6
2019-03-13T02:30:43.055Z,12.6
2019-03-13T02:31:33.838Z,12.6
2019-03-13T02:32:23.449Z,12.6
2019-03-13T02:33:13.562Z,12.6
2019-03-13T02:34:03.693Z,12.6
2019-03-13T02:34:53.349Z,12.6
2019-03-13T02:35:43.990Z,12.6
2019-03-13T02:36:33.772Z,12.6
2019-03-13T02:37:24.271Z,12.6
2019-03-13T02:38:14.170Z,12.6
2019-03-13T02:39:03.666Z,12.6
2019-03-13T02:39:53.474Z,12.6
2019-03-13T02:40:44.100Z,12.6
2019-03-13T02:41:34.383Z,12.6
2019-03-13T02:42:23.900Z,12.6
2019-03-13T02:43:14.642Z,12.6
2019-03-13T02:44:04.602Z,12.6
2019-03-13T02:44:54.392Z,12.6
2019-03-13T02:45:44.436Z,12.6
2019-03-13T02:46:34.732Z,12.6
2019-03-13T02:47:24.569Z,12.6
2019-03-13T02:48:14.629Z,12.6
2019-03-13T02:49:04.442Z,12.6
2019-03-13T02:49:54.735Z,12.6
2019-03-13T02:50:45.078Z,12.6
2019-03-13T02:51:34.841Z,12.6
2019-03-13T02:52:25.310Z,12.6
2019-03-13T02:53:14.716Z,12.6
2019-03-13T02:54:04.997Z,12.6
2019-03-13T02:54:54.821Z,12.5
2019-03-13T02:55:44.306Z,12.5
2019-03-13T02:56:34.619Z,12.5
2019-03-13T02:57:25.374Z,12.5
2019-03-13T02:58:14.739Z,12.5
2019-03-13T02:59:05.644Z,12.5
2019-03-13T02:59:55.605Z,12.5
2019-03-13T03:00:45.796Z,12.5
2019-03-13T03:01:35.618Z,12.5
2019-03-13T03:02:25.373Z,12.5
2019-03-13T03:03:15.938Z,12.5
2019-03-13T03:04:05.998Z,12.5
2019-03-13T03:07:37.360Z,12.5
2019-03-13T03:08:27.194Z,12.5
2019-03-13T03:09:17.621Z,12.5
2019-03-13T03:10:07.649Z,12.4
2019-03-13T03:10:57.611Z,12.4
2019-03-13T03:11:47.343Z,12.4
2019-03-13T03:12:37.695Z,12.4
2019-03-13T03:13:27.809Z,12.4
2019-03-13T03:14:17.620Z,12.4
2019-03-13T03:15:07.323Z,12.4
2019-03-13T03:15:57.700Z,12.4
2019-03-13T03:16:48.019Z,12.4
2019-03-13T03:17:38.158Z,12.4
2019-03-13T03:18:28.130Z,12.4
2019-03-13T03:19:18.170Z,12.4
2019-03-13T03:20:08.387Z,12.4
2019-03-13T03:20:58.306Z,12.4
2019-03-13T03:21:48.065Z,12.4
2019-03-13T03:22:38.095Z,12.4
2019-03-13T03:23:28.199Z,12.4
2019-03-13T03:24:18.508Z,12.4
2019-03-13T03:25:08.610Z,12.4
2019-03-13T03:25:58.670Z,12.4
2019-03-13T03:26:48.585Z,12.4
2019-03-13T03:27:38.233Z,12.4
2019-03-13T03:28:28.824Z,12.3
2019-03-13T03:29:18.740Z,12.4
2019-03-13T03:30:08.766Z,12.4
2019-03-13T03:30:58.940Z,12.4
2019-03-13T03:31:48.624Z,12.3
2019-03-13T03:32:39.205Z,12.3
2019-03-13T03:33:29.373Z,12.3
2019-03-13T03:34:19.270Z,12.3
2019-03-13T03:35:08.825Z,12.3
2019-03-13T03:35:59.361Z,12.3
2019-03-13T03:36:48.902Z,12.3
2019-03-13T03:37:39.411Z,12.3
2019-03-13T03:38:29.553Z,12.3
2019-03-13T03:39:19.329Z,12.3
2019-03-13T03:40:09.366Z,12.3
2019-03-13T03:40:59.469Z,12.3
2019-03-13T03:41:49.633Z,12.3
2019-03-13T03:42:39.615Z,12.3
2019-03-13T03:43:43.879Z,12.3
2019-03-13T03:44:19.651Z,12.3
2019-03-13T03:45:09.508Z,12.3
2019-03-13T03:46:00.078Z,12.3
2019-03-13T03:46:49.367Z,12.3
2019-03-13T03:47:39.946Z,12.3
2019-03-13T03:48:30.391Z,12.3
2019-03-13T03:49:19.786Z,12.3
2019-03-13T03:50:10.111Z,12.3
2019-03-13T03:51:00.436Z,12.3
2019-03-13T03:51:50.453Z,12.3
2019-03-13T03:52:40.257Z,12.3
2019-03-13T03:53:30.309Z,12.3
2019-03-13T03:54:20.355Z,12.3
2019-03-13T03:55:10.718Z,12.3
2019-03-13T03:56:00.784Z,12.3
2019-03-13T03:56:50.622Z,12.3
2019-03-13T03:57:40.888Z,12.3
2019-03-13T03:58:33.145Z,12.3
2019-03-13T03:59:21.026Z,12.3
2019-03-13T04:00:11.091Z,12.3
2019-03-13T04:01:01.138Z,12.3
2019-03-13T04:01:50.956Z,12.3
2019-03-13T04:02:41.290Z,12.3
2019-03-13T04:03:31.097Z,12.3
2019-03-13T04:04:21.411Z,12.3
2019-03-13T04:05:10.909Z,12.4
2019-03-13T04:06:01.542Z,12.3
2019-03-13T04:06:51.247Z,12.3
2019-03-13T04:07:41.605Z,12.3
2019-03-13T04:08:31.736Z,12.3
2019-03-13T04:09:21.433Z,12.3
2019-03-13T04:10:11.484Z,12.3
2019-03-13T04:11:01.994Z,12.3
2019-03-13T04:11:51.650Z,12.3
2019-03-13T04:12:42.167Z,12.3
2019-03-13T04:13:31.738Z,12.3
2019-03-13T04:14:22.115Z,12.3
2019-03-13T04:15:12.143Z,12.3
2019-03-13T04:16:02.267Z,12.3
2019-03-13T04:16:52.244Z,12.3
2019-03-13T04:17:41.740Z,12.3
2019-03-13T04:18:31.297Z,12.3
2019-03-13T04:19:21.927Z,12.3
2019-03-13T04:20:12.022Z,12.3
2019-03-13T04:21:02.707Z,12.3
2019-03-13T04:21:52.603Z,12.3
2019-03-13T04:22:42.398Z,12.3
2019-03-13T04:23:32.806Z,12.3
2019-03-13T04:24:22.531Z,12.3
2019-03-13T04:25:27.692Z,12.3
2019-03-13T04:26:02.731Z,12.3
2019-03-13T04:26:52.999Z,12.3
2019-03-13T04:27:42.753Z,12.3
2019-03-13T04:28:33.132Z,12.3
2019-03-13T04:29:22.941Z,12.3
2019-03-13T04:30:13.434Z,12.3
2019-03-13T04:31:03.288Z,12.3
2019-03-13T04:31:53.049Z,12.3
2019-03-13T04:32:43.352Z,12.3
2019-03-13T04:33:33.150Z,12.3
2019-03-13T04:34:23.279Z,12.3
2019-03-13T04:35:13.546Z,12.3
2019-03-13T04:36:03.351Z,12.3
2019-03-13T04:36:53.441Z,12.3
2019-03-13T04:37:43.738Z,12.3
2019-03-13T04:38:33.906Z,12.3
2019-03-13T04:39:23.622Z,12.3
2019-03-13T04:40:13.638Z,12.3
2019-03-13T04:41:03.726Z,12.3
2019-03-13T04:41:53.815Z,12.3
2019-03-13T04:42:43.857Z,12.3
2019-03-13T04:43:34.120Z,12.3
2019-03-13T04:44:23.618Z,12.3
2019-03-13T04:45:13.688Z,12.3
2019-03-13T04:46:04.164Z,12.3
2019-03-13T04:46:54.375Z,12.3
2019-03-13T04:47:44.146Z,12.3
2019-03-13T04:48:34.470Z,12.3
2019-03-13T04:49:24.295Z,12.3
2019-03-13T04:50:14.304Z,12.3
2019-03-13T04:51:04.360Z,12.3
2019-03-13T04:51:54.425Z,12.3
2019-03-13T04:52:44.054Z,12.4
2019-03-13T04:53:34.557Z,12.3
2019-03-13T04:54:24.384Z,12.3
2019-03-13T04:55:14.454Z,12.3
2019-03-13T04:56:04.257Z,12.3
2019-03-13T04:56:54.297Z,12.3
2019-03-13T04:57:44.857Z,12.3
2019-03-13T04:58:34.900Z,12.4
2019-03-13T04:59:24.962Z,12.3
2019-03-13T05:00:15.327Z,12.3
2019-03-13T05:01:05.073Z,12.3
2019-03-13T05:01:54.374Z,12.3
2019-03-13T05:02:45.202Z,12.3
2019-03-13T05:03:35.258Z,12.4
2019-03-13T05:04:25.317Z,12.6
2019-03-13T05:05:15.443Z,12.9
2019-03-13T05:06:05.721Z,13
2019-03-13T05:06:55.491Z,13
2019-03-13T05:07:45.824Z,13
2019-03-13T05:08:48.478Z,13
2019-03-13T05:09:26.032Z,13.1
2019-03-13T05:10:15.749Z,13.1
2019-03-13T05:11:06.073Z,13.1
2019-03-13T05:11:56.173Z,13.1
2019-03-13T05:12:46.026Z,13.2
2019-03-13T05:13:36.241Z,13.3
2019-03-13T05:14:25.773Z,13.3
2019-03-13T05:15:16.425Z,13.3
2019-03-13T05:16:06.243Z,13.3
2019-03-13T05:16:56.472Z,13.4
2019-03-13T05:17:46.516Z,13.4
2019-03-13T05:18:36.314Z,13.4
2019-03-13T05:19:26.733Z,13.4
2019-03-13T05:20:17.125Z,13.5
2019-03-13T05:21:06.531Z,13.5
2019-03-13T05:21:56.851Z,13.6
2019-03-13T05:22:46.604Z,13.6
2019-03-13T05:23:36.956Z,13.6
2019-03-13T05:24:27.006Z,13.7
2019-03-13T05:25:19.988Z,13.7
2019-03-13T05:26:07.138Z,13.7
2019-03-13T05:26:57.172Z,13.8
2019-03-13T05:27:46.983Z,13.8
2019-03-13T05:28:37.314Z,13.8
2019-03-13T05:29:27.134Z,13.8
2019-03-13T05:30:17.423Z,13.9
2019-03-13T05:31:07.216Z,13.9
2019-03-13T05:31:57.291Z,13.9
2019-03-13T05:32:47.315Z,14
2019-03-13T05:33:37.698Z,14
2019-03-13T05:34:27.557Z,14.1
2019-03-13T05:35:17.813Z,14.1
2019-03-13T05:36:07.969Z,14.1
2019-03-13T05:36:57.929Z,14.1
2019-03-13T05:37:47.485Z,14.2
2019-03-13T05:38:38.047Z,14.2
2019-03-13T05:39:28.153Z,14.3
2019-03-13T05:40:18.138Z,14.3
2019-03-13T05:41:08.307Z,14.3
2019-03-13T05:41:57.756Z,14.3
2019-03-13T05:42:47.550Z,14.4
2019-03-13T05:43:37.875Z,14.4
2019-03-13T05:44:27.888Z,14.4
2019-03-13T05:45:18.481Z,14.4
2019-03-13T05:46:07.792Z,14.4
2019-03-13T05:46:58.595Z,14.4
2019-03-13T05:47:48.668Z,14.5
2019-03-13T05:48:38.452Z,14.5
2019-03-13T05:49:28.798Z,14.6
2019-03-13T05:50:18.872Z,14.6
2019-03-13T05:51:08.620Z,14.6
2019-03-13T05:51:58.724Z,14.6
2019-03-13T05:52:49.007Z,14.6
2019-03-13T05:53:39.140Z,14.7
2019-03-13T05:54:29.158Z,14.7
2019-03-13T05:55:19.267Z,14.7
2019-03-13T05:56:08.691Z,14.8
2019-03-13T05:56:59.414Z,14.8
2019-03-13T05:57:48.830Z,14.8
2019-03-13T05:58:39.457Z,14.8
2019-03-13T05:59:29.489Z,14.8
2019-03-13T06:00:19.014Z,14.8
2019-03-13T06:01:09.600Z,14.8
2019-03-13T06:01:59.529Z,14.8
2019-03-13T06:02:51.147Z,14.9
2019-03-13T06:03:39.789Z,14.9
2019-03-13T06:05:37.154Z,14.9
2019-03-13T06:06:26.923Z,15
2019-03-13T06:07:17.284Z,15
2019-03-13T06:08:07.319Z,15
2019-03-13T06:08:57.383Z,15
2019-03-13T06:09:47.207Z,15.1
2019-03-13T06:10:36.938Z,15.1
2019-03-13T06:11:27.540Z,15.1
2019-03-13T06:12:17.637Z,15.1
2019-03-13T06:13:07.399Z,15.1
2019-03-13T06:13:57.236Z,15.1
2019-03-13T06:14:47.616Z,15.1
2019-03-13T06:15:37.866Z,15.1
2019-03-13T06:16:27.906Z,15.2
2019-03-13T06:17:18.051Z,15.2
2019-03-13T06:18:11.734Z,15.2
2019-03-13T06:18:57.822Z,15.3
2019-03-13T06:19:47.293Z,15.3
2019-03-13T06:20:38.204Z,15.3
2019-03-13T06:21:27.992Z,15.3
2019-03-13T06:22:18.095Z,15.3
2019-03-13T06:23:08.096Z,15.3
2019-03-13T06:23:58.455Z,15.3
2019-03-13T06:24:47.948Z,15.3
2019-03-13T06:25:38.626Z,15.3
2019-03-13T06:26:28.056Z,15.4
2019-03-13T06:27:18.130Z,15.4
2019-03-13T06:28:08.195Z,15.4
2019-03-13T06:28:58.518Z,15.4
2019-03-13T06:29:48.578Z,15.4
2019-03-13T06:30:38.631Z,15.4
2019-03-13T06:31:29.000Z,15.4
2019-03-13T06:32:18.545Z,15.4
2019-03-13T06:33:08.313Z,15.4
2019-03-13T06:33:59.130Z,15.4
2019-03-13T06:34:49.188Z,15.4
2019-03-13T06:35:38.973Z,15.5
2019-03-13T06:36:28.767Z,15.5
2019-03-13T06:37:19.103Z,15.5
2019-03-13T06:38:09.430Z,15.5
2019-03-13T06:38:59.215Z,15.6
2019-03-13T06:39:49.381Z,15.6
2019-03-13T06:40:39.070Z,15.6
2019-03-13T06:41:29.737Z,15.6
2019-03-13T06:42:19.452Z,15.6
2019-03-13T06:43:08.950Z,15.6
2019-03-13T06:43:59.569Z,15.6
2019-03-13T06:44:49.614Z,15.6
2019-03-13T06:45:39.951Z,15.6
2019-03-13T06:46:29.784Z,15.6
2019-03-13T06:47:19.817Z,15.6
2019-03-13T06:48:09.402Z,15.7
2019-03-13T06:48:59.922Z,15.7
2019-03-13T06:49:49.974Z,15.7
2019-03-13T06:50:40.312Z,15.7
2019-03-13T06:51:30.192Z,15.7
2019-03-13T06:52:20.154Z,15.7
2019-03-13T06:53:10.329Z,15.8
2019-03-13T06:54:00.364Z,15.7
2019-03-13T06:54:50.063Z,15.8
2019-03-13T06:55:40.474Z,15.8
2019-03-13T06:56:30.449Z,15.8
2019-03-13T06:57:20.774Z,15.8
2019-03-13T06:58:10.014Z,15.8
2019-03-13T06:59:00.349Z,15.8
2019-03-13T06:59:50.954Z,15.8
2019-03-13T07:00:39.912Z,15.9
2019-03-13T07:01:30.534Z,15.9
2019-03-13T07:02:21.136Z,15.9
2019-03-13T07:03:10.921Z,15.9
2019-03-13T07:05:36.824Z,15.9
2019-03-13T07:06:26.597Z,15.9
2019-03-13T07:07:16.963Z,15.9
2019-03-13T07:08:07.264Z,15.9
2019-03-13T07:08:56.839Z,15.9
2019-03-13T07:09:47.404Z,15.9
2019-03-13T07:10:37.173Z,16
2019-03-13T07:11:27.218Z,16
2019-03-13T07:12:17.673Z,16
2019-03-13T07:13:06.786Z,16
2019-03-13T07:13:57.138Z,16
2019-03-13T07:14:47.738Z,16
2019-03-13T07:15:39.031Z,16
2019-03-13T07:16:27.840Z,16.1
2019-03-13T07:17:17.908Z,16.1
2019-03-13T07:18:07.680Z,16.1
2019-03-13T07:18:58.028Z,16.1
2019-03-13T07:19:47.534Z,16.1
2019-03-13T07:20:37.966Z,16.1
2019-03-13T07:21:28.215Z,16.1
2019-03-13T07:22:18.360Z,16.1
2019-03-13T07:23:07.782Z,16.1
2019-03-13T07:23:58.182Z,16.1
2019-03-13T07:25:37.948Z,24.6
2019-03-13T07:26:28.598Z,44.3
2019-03-13T07:27:18.605Z,49.6
2019-03-13T07:28:08.398Z,49.3
2019-03-13T07:29:12.758Z,48.7
2019-03-13T07:29:47.768Z,46
2019-03-13T07:30:38.307Z,44.9
2019-03-13T07:31:28.675Z,43.9
2019-03-13T07:32:18.784Z,43.2
2019-03-13T07:33:08.770Z,42.6
2019-03-13T07:33:58.274Z,41.9
2019-03-13T07:34:48.840Z,41.3
2019-03-13T07:35:39.226Z,40.8
2019-03-13T07:36:29.014Z,40.2
2019-03-13T07:37:19.339Z,39.7
2019-03-13T07:38:08.844Z,39.1
2019-03-13T07:38:59.166Z,38.6
2019-03-13T07:39:48.957Z,38.1
2019-03-13T07:40:39.589Z,37.6
2019-03-13T07:41:29.355Z,37.1
2019-03-13T07:42:18.909Z,36.7
2019-03-13T07:43:09.756Z,36.3
2019-03-13T07:43:59.249Z,35.8
2019-03-13T07:44:49.149Z,35.4
2019-03-13T07:45:39.641Z,35
2019-03-13T07:46:29.711Z,34.6
2019-03-13T07:47:19.774Z,38.4
2019-03-13T07:48:09.829Z,43.6
2019-03-13T07:48:59.883Z,53.1
2019-03-13T07:49:50.226Z,54.1
2019-03-13T07:50:40.021Z,51.6
2019-03-13T07:51:29.778Z,50.1
2019-03-13T07:52:20.406Z,49.2
2019-03-13T07:53:10.263Z,48.3
2019-03-13T07:54:00.232Z,47.6
2019-03-13T07:54:50.300Z,46.9
2019-03-13T07:55:40.646Z,46.2
2019-03-13T07:56:30.416Z,45.5
2019-03-13T07:57:20.766Z,44.9
2019-03-13T07:58:10.633Z,44.2
2019-03-13T07:59:00.888Z,43.6
2019-03-13T07:59:50.951Z,43
2019-03-13T08:00:40.731Z,42.4
2019-03-13T08:01:30.780Z,41.8
2019-03-13T08:02:20.835Z,41.2
2019-03-13T08:03:11.196Z,40.7
2019-03-13T08:04:01.256Z,41.8
2019-03-13T08:04:51.087Z,43.6
2019-03-13T08:05:41.379Z,52.7
2019-03-13T08:06:31.140Z,57.1
2019-03-13T08:07:21.203Z,57.2
2019-03-13T08:08:11.268Z,55.5
2019-03-13T08:09:01.303Z,52.9
2019-03-13T08:09:51.095Z,50.5
2019-03-13T08:10:41.800Z,49.1
2019-03-13T08:11:31.797Z,48.3
2019-03-13T08:12:21.007Z,47.6
2019-03-13T08:13:11.892Z,47
2019-03-13T08:14:02.017Z,46.3
2019-03-13T08:14:51.450Z,45.6
2019-03-13T08:15:42.087Z,45
2019-03-13T08:16:31.871Z,45.6
2019-03-13T08:17:21.908Z,48
2019-03-13T08:18:12.239Z,54.1
2019-03-13T08:19:02.027Z,55.9
2019-03-13T08:19:52.372Z,55.4
2019-03-13T08:20:41.915Z,53.1
2019-03-13T08:21:32.594Z,51.2
2019-03-13T08:22:22.531Z,50.1
2019-03-13T08:23:12.324Z,49.3
2019-03-13T08:24:02.750Z,48.7
2019-03-13T08:24:52.434Z,48.1
2019-03-13T08:25:42.774Z,47.4
2019-03-13T08:26:32.587Z,46.7
2019-03-13T08:27:22.888Z,46.1
2019-03-13T08:28:12.403Z,45.4
2019-03-13T08:29:03.014Z,44.8
2019-03-13T08:29:52.781Z,44.1
2019-03-13T08:30:43.244Z,43.5
2019-03-13T08:31:32.924Z,42.9
2019-03-13T08:32:22.701Z,42.3
2019-03-13T08:33:12.509Z,41.8
2019-03-13T08:34:03.130Z,41.3
2019-03-13T08:34:53.411Z,40.8
2019-03-13T08:35:43.476Z,40.3
2019-03-13T08:36:32.714Z,39.8
2019-03-13T08:37:23.694Z,39.3
2019-03-13T08:38:13.408Z,38.8
2019-03-13T08:39:03.719Z,38.4
2019-03-13T08:39:53.235Z,37.9
2019-03-13T08:40:43.006Z,37.4
2019-03-13T08:41:33.638Z,37.1
2019-03-13T08:42:24.033Z,36.6
2019-03-13T08:43:13.752Z,36.3
2019-03-13T08:44:04.093Z,35.9
2019-03-13T08:44:53.879Z,35.5
2019-03-13T08:45:43.925Z,35.1
2019-03-13T08:46:34.257Z,34.8
2019-03-13T08:47:24.098Z,34.5
2019-03-13T08:48:14.376Z,34.1
2019-03-13T08:49:03.971Z,33.8
2019-03-13T08:49:54.537Z,33.5
2019-03-13T08:50:44.025Z,33.2
2019-03-13T08:51:34.748Z,32.9
2019-03-13T08:52:24.383Z,32.6
2019-03-13T08:53:14.451Z,32.3
2019-03-13T08:54:04.638Z,32
2019-03-13T08:54:54.852Z,31.8
2019-03-13T08:55:44.627Z,31.5
2019-03-13T08:56:34.433Z,31.3
2019-03-13T08:57:25.015Z,31
2019-03-13T08:58:14.635Z,30.8
2019-03-13T08:59:04.897Z,30.5
2019-03-13T08:59:54.365Z,30.3
2019-03-13T09:00:45.273Z,30.1
2019-03-13T09:01:35.335Z,29.8
2019-03-13T09:02:25.130Z,29.6
2019-03-13T09:03:14.885Z,29.4
2019-03-13T09:04:05.517Z,29.2
2019-03-13T09:04:54.462Z,32.8
2019-03-13T09:05:44.897Z,37.7
2019-03-13T09:06:35.124Z,53.8
2019-03-13T09:07:25.177Z,61.1
2019-03-13T09:08:15.816Z,61.8
2019-03-13T09:09:05.084Z,59.1
2019-03-13T09:09:55.384Z,54.3
2019-03-13T09:10:45.719Z,50.3
2019-03-13T09:11:35.751Z,49.4
2019-03-13T09:12:26.097Z,51.8
2019-03-13T09:13:15.616Z,55
2019-03-13T09:14:05.959Z,57.3
2019-03-13T09:14:55.721Z,58.3
2019-03-13T09:15:46.046Z,57.1
2019-03-13T09:16:35.631Z,54.3
2019-03-13T09:17:26.171Z,52
2019-03-13T09:18:16.288Z,51.8
2019-03-13T09:19:06.171Z,52.7
2019-03-13T09:19:56.626Z,52.9
2019-03-13T09:20:45.929Z,52.4
2019-03-13T09:21:36.583Z,51.7
2019-03-13T09:22:26.821Z,50.6
2019-03-13T09:23:16.858Z,49.8
2019-03-13T09:24:06.401Z,48.9
2019-03-13T09:24:56.291Z,48.1
2019-03-13T09:25:46.228Z,47.2
2019-03-13T09:26:36.831Z,46.8
2019-03-13T09:27:26.325Z,46
2019-03-13T09:28:16.961Z,45.4
2019-03-13T09:29:07.001Z,44.8
2019-03-13T09:29:57.088Z,44.1
2019-03-13T09:30:46.988Z,43.6
2019-03-13T09:31:37.183Z,43
2019-03-13T09:32:27.507Z,42.4
2019-03-13T09:33:17.302Z,41.9
2019-03-13T09:34:06.823Z,41.4
2019-03-13T09:34:56.867Z,40.9
2019-03-13T09:35:47.473Z,40.4
2019-03-13T09:36:37.268Z,39.9
2019-03-13T09:37:27.590Z,39.4
2019-03-13T09:38:17.405Z,39
2019-03-13T09:39:08.023Z,38.6
2019-03-13T09:39:58.050Z,38.1
2019-03-13T09:40:47.820Z,37.7
2019-03-13T09:41:37.893Z,37.3
2019-03-13T09:42:28.057Z,39.4
2019-03-13T09:43:18.007Z,42.4
2019-03-13T09:44:08.087Z,50.8
2019-03-13T09:44:57.873Z,53.6
2019-03-13T09:45:48.484Z,53
2019-03-13T09:46:37.752Z,51.4
2019-03-13T09:47:28.312Z,50.4
2019-03-13T09:48:18.364Z,49.6
2019-03-13T09:49:08.413Z,49.1
2019-03-13T09:49:58.752Z,48.4
2019-03-13T09:50:48.283Z,47.7
2019-03-13T09:51:38.321Z,47.1
2019-03-13T09:52:28.764Z,46.4
2019-03-13T09:53:18.750Z,45.7
2019-03-13T09:54:08.597Z,45.1
2019-03-13T09:54:58.847Z,44.5
2019-03-13T09:55:48.642Z,43.8
2019-03-13T09:56:38.113Z,43.3
2019-03-13T09:57:29.041Z,42.8
2019-03-13T09:58:19.074Z,42.8
2019-03-13T09:59:08.965Z,43.7
2019-03-13T09:59:59.478Z,51.9
2019-03-13T10:00:49.017Z,60.4
2019-03-13T10:01:39.647Z,61.8
2019-03-13T10:02:29.372Z,61.3
2019-03-13T10:03:18.868Z,59
2019-03-13T10:04:09.510Z,56.3
2019-03-13T10:06:36.678Z,56.6
2019-03-13T10:07:26.275Z,59.3
2019-03-13T10:08:16.522Z,60.8
2019-03-13T10:09:07.113Z,60.9
2019-03-13T10:09:56.906Z,60.4
2019-03-13T10:10:46.958Z,60.1
2019-03-13T10:11:37.023Z,60.1
2019-03-13T10:12:27.093Z,60.5
2019-03-13T10:13:16.935Z,61.4
2019-03-13T10:14:06.666Z,62.3
2019-03-13T10:14:57.061Z,62.9
2019-03-13T10:15:47.318Z,63.3
2019-03-13T10:16:37.648Z,63.4
2019-03-13T10:17:27.525Z,63.4
2019-03-13T10:18:17.501Z,63.3
2019-03-13T10:19:07.298Z,63.3
2019-03-13T10:19:57.620Z,63.8
2019-03-13T10:20:47.416Z,64.2
2019-03-13T10:21:37.452Z,64.6
2019-03-13T10:22:28.052Z,64.9
2019-03-13T10:23:16.545Z,65.1
2019-03-13T10:24:07.915Z,65.1
2019-03-13T10:24:58.245Z,65.1
2019-03-13T10:25:51.615Z,65.2
2019-03-13T10:26:38.091Z,64.8
2019-03-13T10:27:28.155Z,63.9
2019-03-13T10:28:18.488Z,63.5
2019-03-13T10:29:08.534Z,63.8
2019-03-13T10:29:58.330Z,64.1
2019-03-13T10:30:48.099Z,64.6
2019-03-13T10:31:38.446Z,64.9
2019-03-13T10:32:28.780Z,64.5
2019-03-13T10:33:18.854Z,64.4
2019-03-13T10:34:08.343Z,64.4
2019-03-13T10:34:58.957Z,64.5
2019-03-13T10:35:48.816Z,63.8
2019-03-13T10:36:39.085Z,62.6
2019-03-13T10:37:28.858Z,62.2
2019-03-13T10:38:19.007Z,62.2
2019-03-13T10:39:08.988Z,61.7
2019-03-13T10:39:59.044Z,61.3
2019-03-13T10:40:49.081Z,60.9
2019-03-13T10:41:39.172Z,60.1
2019-03-13T10:42:29.892Z,59.6
2019-03-13T10:43:19.289Z,59.4
2019-03-13T10:44:09.634Z,58.7
2019-03-13T10:44:59.685Z,57.7
2019-03-13T10:45:49.752Z,56.8
2019-03-13T10:46:39.789Z,56.9
2019-03-13T10:47:29.577Z,57.1
2019-03-13T10:48:19.367Z,56.3
2019-03-13T10:49:09.696Z,55.4
2019-03-13T10:49:59.776Z,55.5
2019-03-13T10:50:49.536Z,56.6
2019-03-13T10:51:39.606Z,58
2019-03-13T10:52:29.656Z,59.1
2019-03-13T10:53:20.312Z,59.8
2019-03-13T10:54:10.315Z,60.1
2019-03-13T10:55:00.432Z,60.1
2019-03-13T10:55:49.893Z,59.9
2019-03-13T10:56:39.495Z,59.9
2019-03-13T10:57:30.278Z,60.1
2019-03-13T10:58:20.345Z,60.6
2019-03-13T10:59:10.401Z,61.1
2019-03-13T11:00:00.458Z,61.6
2019-03-13T11:00:50.708Z,61.9
2019-03-13T11:01:40.587Z,62.1
2019-03-13T11:02:30.648Z,62.3
2019-03-13T11:03:20.745Z,62.4
2019-03-13T11:04:10.483Z,62.4
2019-03-13T11:05:00.761Z,62.6
2019-03-13T11:05:50.609Z,62.8
2019-03-13T11:06:40.750Z,62.9
2019-03-13T11:07:32.103Z,63.1
2019-03-13T11:08:21.095Z,63.3
2019-03-13T11:09:11.404Z,63.3
2019-03-13T11:10:01.538Z,63.4
2019-03-13T11:10:50.117Z,63.2
2019-03-13T11:11:41.300Z,62.1
2019-03-13T11:12:31.065Z,61.6
2019-03-13T11:13:21.737Z,61.9
2019-03-13T11:14:19.189Z,62.5
2019-03-13T11:15:01.912Z,63.3
2019-03-13T11:15:51.592Z,63.6
2019-03-13T11:16:41.752Z,63.8